TimeHST,TemperatureF,Dew PointF,Humidity,Sea Level PressureIn,VisibilityMPH,Wind Direction,Wind SpeedMPH,Gust SpeedMPH,PrecipitationIn,Events,Conditions,WindDirDegrees,DateUTC
12:54 AM,73.0,64.0,73,30.09,10.0,ENE,13.8,27.6,N/A,,Clear,60,2012-11-18 10:54:00
1:54 AM,73.0,63.0,71,30.08,10.0,NE,10.4,-,N/A,,Clear,50,2012-11-18 11:54:00
2:54 AM,73.0,64.0,73,30.06,10.0,NE,11.5,18.4,N/A,,Clear,50,2012-11-18 12:54:00
3:54 AM,73.0,62.1,68,30.06,10.0,NE,9.2,18.4,N/A,,Clear,40,2012-11-18 13:54:00
4:54 AM,73.0,62.1,68,30.06,10.0,ENE,9.2,-,N/A,,Clear,60,2012-11-18 14:54:00
5:54 AM,73.0,59.0,61,30.07,10.0,NE,9.2,-,N/A,,Clear,50,2012-11-18 15:54:00
6:54 AM,73.0,61.0,66,30.09,10.0,Variable,5.8,-,N/A,,Scattered Clouds,0,2012-11-18 16:54:00
7:54 AM,75.0,62.1,64,30.11,10.0,NE,8.1,-,N/A,,Scattered Clouds,40,2012-11-18 17:54:00
8:54 AM,79.0,59.0,50,30.11,10.0,ENE,12.7,-,N/A,,Clear,60,2012-11-18 18:54:00
9:54 AM,78.1,59.0,52,30.13,10.0,SSW,4.6,-,N/A,,Scattered Clouds,210,2012-11-18 19:54:00
10:54 AM,80.1,62.1,54,30.11,10.0,ENE,17.3,21.9,N/A,,Mostly Cloudy,60,2012-11-18 20:54:00
11:54 AM,81.0,61.0,50,30.09,10.0,NNE,13.8,24.2,N/A,,Mostly Cloudy,30,2012-11-18 21:54:00
12:54 PM,80.1,61.0,52,30.07,10.0,NE,12.7,21.9,N/A,,Scattered Clouds,40,2012-11-18 22:54:00
1:54 PM,79.0,62.1,56,30.05,10.0,NE,10.4,19.6,N/A,,Mostly Cloudy,40,2012-11-18 23:54:00
2:54 PM,81.0,62.1,52,30.04,10.0,NNE,9.2,-,N/A,,Scattered Clouds,20,2012-11-19 00:54:00
3:54 PM,80.1,62.1,54,30.04,10.0,North,6.9,-,N/A,,Scattered Clouds,10,2012-11-19 01:54:00
4:54 PM,78.1,61.0,56,30.05,10.0,NNE,4.6,-,N/A,,Scattered Clouds,30,2012-11-19 02:54:00
5:54 PM,75.0,62.1,64,30.07,10.0,Calm,Calm,-,N/A,,Mostly Cloudy,0,2012-11-19 03:54:00
6:54 PM,73.0,60.1,64,30.08,10.0,Calm,Calm,-,N/A,,Clear,0,2012-11-19 04:54:00
7:54 PM,73.9,62.1,66,30.09,10.0,NNE,3.5,-,N/A,,Clear,30,2012-11-19 05:54:00
8:54 PM,73.9,63.0,68,30.09,10.0,NNE,6.9,-,N/A,,Clear,30,2012-11-19 06:54:00
9:54 PM,73.0,61.0,66,30.09,10.0,ENE,3.5,-,N/A,,Clear,70,2012-11-19 07:54:00
10:54 PM,71.1,60.1,68,30.09,10.0,ENE,3.5,-,N/A,,Clear,60,2012-11-19 08:54:00
11:54 PM,71.1,60.1,68,30.09,10.0,NNE,4.6,-,N/A,,Clear,20,2012-11-19 09:54:00